sensor_id;sensor_type;location;lat;lon;timestamp;pressure;altitude;pressure_sealevel;temperature;humidity
55460;BME280;41326;45.302;-122.946;2022-10-16T00:00:35;100376.69;;;22.17;54.43
55460;BME280;41326;45.302;-122.946;2022-10-16T00:03:04;100376.01;;;22.17;54.47
55460;BME280;41326;45.302;-122.946;2022-10-16T00:05:38;100375.03;;;22.21;54.38
55460;BME280;41326;45.302;-122.946;2022-10-16T00:08:05;100372.13;;;22.19;54.40
55460;BME280;41326;45.302;-122.946;2022-10-16T00:10:35;100368.35;;;22.19;54.39
55460;BME280;41326;45.302;-122.946;2022-10-16T00:13:06;100367.86;;;22.18;54.45
55460;BME280;41326;45.302;-122.946;2022-10-16T00:15:38;100361.58;;;22.16;54.56
55460;BME280;41326;45.302;-122.946;2022-10-16T00:18:06;100366.77;;;22.22;54.48
55460;BME280;41326;45.302;-122.946;2022-10-16T00:20:39;100366.58;;;22.25;54.39
55460;BME280;41326;45.302;-122.946;2022-10-16T00:23:08;100366.36;;;22.24;54.50
55460;BME280;41326;45.302;-122.946;2022-10-16T00:25:38;100368.99;;;22.21;54.64
55460;BME280;41326;45.302;-122.946;2022-10-16T00:28:08;100372.28;;;22.18;54.72
55460;BME280;41326;45.302;-122.946;2022-10-16T00:30:38;100373.61;;;22.20;54.61
55460;BME280;41326;45.302;-122.946;2022-10-16T00:33:08;100371.36;;;22.22;54.58
55460;BME280;41326;45.302;-122.946;2022-10-16T00:35:39;100370.40;;;22.21;54.68
55460;BME280;41326;45.302;-122.946;2022-10-16T00:38:09;100369.15;;;22.25;54.61
55460;BME280;41326;45.302;-122.946;2022-10-16T00:40:40;100371.87;;;22.27;54.58
55460;BME280;41326;45.302;-122.946;2022-10-16T00:45:41;100372.67;;;22.27;54.68
55460;BME280;41326;45.302;-122.946;2022-10-16T00:48:16;100368.37;;;22.24;54.74
55460;BME280;41326;45.302;-122.946;2022-10-16T00:50:41;100370.25;;;22.22;54.76
55460;BME280;41326;45.302;-122.946;2022-10-16T00:53:12;100367.09;;;22.23;54.76
55460;BME280;41326;45.302;-122.946;2022-10-16T00:55:42;100369.69;;;22.23;54.82
55460;BME280;41326;45.302;-122.946;2022-10-16T00:58:12;100370.82;;;22.24;54.84
55460;BME280;41326;45.302;-122.946;2022-10-16T01:00:42;100367.27;;;22.24;54.89
55460;BME280;41326;45.302;-122.946;2022-10-16T01:03:24;100366.10;;;22.23;54.95
55460;BME280;41326;45.302;-122.946;2022-10-16T01:05:48;100366.52;;;22.25;54.96
55460;BME280;41326;45.302;-122.946;2022-10-16T01:08:18;100369.46;;;22.20;55.03
55460;BME280;41326;45.302;-122.946;2022-10-16T01:10:47;100367.24;;;22.22;54.96
55460;BME280;41326;45.302;-122.946;2022-10-16T01:13:17;100369.13;;;22.24;54.91
55460;BME280;41326;45.302;-122.946;2022-10-16T01:15:48;100369.30;;;22.25;54.94
55460;BME280;41326;45.302;-122.946;2022-10-16T01:18:19;100368.99;;;22.24;55.00
55460;BME280;41326;45.302;-122.946;2022-10-16T01:20:49;100372.50;;;22.25;55.01
55460;BME280;41326;45.302;-122.946;2022-10-16T01:23:26;100369.28;;;22.29;54.96
55460;BME280;41326;45.302;-122.946;2022-10-16T01:25:59;100374.27;;;22.28;55.00
55460;BME280;41326;45.302;-122.946;2022-10-16T01:28:17;100372.67;;;22.25;55.04
55460;BME280;41326;45.302;-122.946;2022-10-16T01:30:47;100374.58;;;22.23;55.05
55460;BME280;41326;45.302;-122.946;2022-10-16T01:33:21;100377.55;;;22.24;55.08
55460;BME280;41326;45.302;-122.946;2022-10-16T01:35:50;100377.81;;;22.26;55.06
55460;BME280;41326;45.302;-122.946;2022-10-16T01:38:22;100379.63;;;22.28;55.04
55460;BME280;41326;45.302;-122.946;2022-10-16T01:40:52;100375.35;;;22.27;55.08
55460;BME280;41326;45.302;-122.946;2022-10-16T01:43:22;100381.44;;;22.28;55.14
55460;BME280;41326;45.302;-122.946;2022-10-16T01:45:50;100382.89;;;22.27;55.18
55460;BME280;41326;45.302;-122.946;2022-10-16T01:48:22;100385.65;;;22.26;55.19
55460;BME280;41326;45.302;-122.946;2022-10-16T01:50:55;100391.86;;;22.24;55.24
55460;BME280;41326;45.302;-122.946;2022-10-16T01:53:21;100389.33;;;22.22;55.33
55460;BME280;41326;45.302;-122.946;2022-10-16T01:55:52;100393.85;;;22.22;55.39
55460;BME280;41326;45.302;-122.946;2022-10-16T01:58:21;100392.74;;;22.23;55.44
55460;BME280;41326;45.302;-122.946;2022-10-16T02:00:52;100399.57;;;22.27;55.34
55460;BME280;41326;45.302;-122.946;2022-10-16T02:03:24;100393.81;;;22.26;55.40
55460;BME280;41326;45.302;-122.946;2022-10-16T02:05:55;100405.27;;;22.23;55.57
55460;BME280;41326;45.302;-122.946;2022-10-16T02:08:22;100405.04;;;22.20;55.60
55460;BME280;41326;45.302;-122.946;2022-10-16T02:10:52;100407.08;;;22.22;55.51
55460;BME280;41326;45.302;-122.946;2022-10-16T02:13:27;100408.68;;;22.25;55.44
55460;BME280;41326;45.302;-122.946;2022-10-16T02:15:53;100410.26;;;22.21;55.63
55460;BME280;41326;45.302;-122.946;2022-10-16T02:18:23;100409.33;;;22.21;55.68
55460;BME280;41326;45.302;-122.946;2022-10-16T02:20:57;100412.50;;;22.25;55.55
55460;BME280;41326;45.302;-122.946;2022-10-16T02:23:32;100417.29;;;22.26;55.57
55460;BME280;41326;45.302;-122.946;2022-10-16T02:25:56;100419.30;;;22.26;55.58
55460;BME280;41326;45.302;-122.946;2022-10-16T02:28:29;100423.71;;;22.23;55.59
55460;BME280;41326;45.302;-122.946;2022-10-16T02:30:58;100422.23;;;22.24;55.52
55460;BME280;41326;45.302;-122.946;2022-10-16T02:33:27;100423.31;;;22.21;55.63
55460;BME280;41326;45.302;-122.946;2022-10-16T02:35:56;100425.53;;;22.25;55.55
55460;BME280;41326;45.302;-122.946;2022-10-16T02:38:27;100427.87;;;22.27;55.50
55460;BME280;41326;45.302;-122.946;2022-10-16T02:40:56;100433.19;;;22.28;55.48
55460;BME280;41326;45.302;-122.946;2022-10-16T02:43:26;100430.22;;;22.24;55.62
55460;BME280;41326;45.302;-122.946;2022-10-16T02:45:57;100433.53;;;22.25;55.62
55460;BME280;41326;45.302;-122.946;2022-10-16T02:48:27;100437.19;;;22.22;55.62
55460;BME280;41326;45.302;-122.946;2022-10-16T02:50:57;100439.41;;;22.20;55.64
55460;BME280;41326;45.302;-122.946;2022-10-16T02:53:28;100435.25;;;22.19;55.72
55460;BME280;41326;45.302;-122.946;2022-10-16T02:55:58;100444.88;;;22.24;55.58
55460;BME280;41326;45.302;-122.946;2022-10-16T02:58:28;100442.67;;;22.25;55.58
55460;BME280;41326;45.302;-122.946;2022-10-16T03:01:00;100444.77;;;22.22;55.71
55460;BME280;41326;45.302;-122.946;2022-10-16T03:03:29;100444.52;;;22.23;55.67
55460;BME280;41326;45.302;-122.946;2022-10-16T03:05:59;100445.26;;;22.24;55.68
55460;BME280;41326;45.302;-122.946;2022-10-16T03:08:30;100454.11;;;22.20;55.71
55460;BME280;41326;45.302;-122.946;2022-10-16T03:11:00;100448.58;;;22.16;55.76
55460;BME280;41326;45.302;-122.946;2022-10-16T03:13:31;100454.28;;;22.18;55.74
55460;BME280;41326;45.302;-122.946;2022-10-16T03:16:01;100454.67;;;22.21;55.67
55460;BME280;41326;45.302;-122.946;2022-10-16T03:18:31;100454.26;;;22.25;55.59
55460;BME280;41326;45.302;-122.946;2022-10-16T03:21:01;100456.29;;;22.22;55.68
55460;BME280;41326;45.302;-122.946;2022-10-16T03:23:32;100456.00;;;22.22;55.70
55460;BME280;41326;45.302;-122.946;2022-10-16T03:26:02;100454.18;;;22.20;55.75
55460;BME280;41326;45.302;-122.946;2022-10-16T03:28:33;100453.06;;;22.14;55.92
55460;BME280;41326;45.302;-122.946;2022-10-16T03:31:03;100449.87;;;22.13;55.91
55460;BME280;41326;45.302;-122.946;2022-10-16T03:33:34;100452.32;;;22.13;55.98
55460;BME280;41326;45.302;-122.946;2022-10-16T03:36:04;100451.92;;;22.12;56.02
55460;BME280;41326;45.302;-122.946;2022-10-16T03:38:35;100450.66;;;22.14;56.02
55460;BME280;41326;45.302;-122.946;2022-10-16T03:41:05;100457.07;;;22.14;56.03
55460;BME280;41326;45.302;-122.946;2022-10-16T03:43:36;100455.23;;;22.11;56.17
55460;BME280;41326;45.302;-122.946;2022-10-16T03:46:05;100464.14;;;22.11;56.21
55460;BME280;41326;45.302;-122.946;2022-10-16T03:48:36;100468.52;;;22.10;56.18
55460;BME280;41326;45.302;-122.946;2022-10-16T03:51:06;100472.51;;;22.05;56.30
55460;BME280;41326;45.302;-122.946;2022-10-16T03:53:36;100475.81;;;22.05;56.35
55460;BME280;41326;45.302;-122.946;2022-10-16T03:56:06;100480.34;;;22.05;56.38
55460;BME280;41326;45.302;-122.946;2022-10-16T03:58:37;100482.91;;;22.06;56.35
55460;BME280;41326;45.302;-122.946;2022-10-16T04:01:07;100482.43;;;22.11;56.22
55460;BME280;41326;45.302;-122.946;2022-10-16T04:03:37;100484.47;;;22.13;56.17
55460;BME280;41326;45.302;-122.946;2022-10-16T04:06:08;100486.81;;;22.14;56.12
55460;BME280;41326;45.302;-122.946;2022-10-16T04:08:38;100484.43;;;22.09;56.20
55460;BME280;41326;45.302;-122.946;2022-10-16T04:11:09;100485.49;;;22.05;56.26
55460;BME280;41326;45.302;-122.946;2022-10-16T04:13:39;100491.27;;;22.09;56.18
55460;BME280;41326;45.302;-122.946;2022-10-16T04:16:09;100487.36;;;22.12;56.11
55460;BME280;41326;45.302;-122.946;2022-10-16T04:18:39;100492.30;;;22.12;56.10
55460;BME280;41326;45.302;-122.946;2022-10-16T04:21:10;100490.07;;;22.09;56.21
55460;BME280;41326;45.302;-122.946;2022-10-16T04:23:41;100488.55;;;22.07;56.29
55460;BME280;41326;45.302;-122.946;2022-10-16T04:26:11;100492.26;;;22.05;56.34
55460;BME280;41326;45.302;-122.946;2022-10-16T04:28:41;100492.19;;;22.03;56.36
55460;BME280;41326;45.302;-122.946;2022-10-16T04:31:11;100497.85;;;22.02;56.29
55460;BME280;41326;45.302;-122.946;2022-10-16T04:33:42;100495.83;;;22.03;56.29
55460;BME280;41326;45.302;-122.946;2022-10-16T04:36:11;100491.07;;;22.02;56.32
55460;BME280;41326;45.302;-122.946;2022-10-16T04:38:41;100490.99;;;22.07;56.19
55460;BME280;41326;45.302;-122.946;2022-10-16T04:41:11;100492.58;;;22.06;56.21
55460;BME280;41326;45.302;-122.946;2022-10-16T04:43:42;100497.71;;;22.05;56.26
55460;BME280;41326;45.302;-122.946;2022-10-16T04:46:12;100495.62;;;22.02;56.35
55460;BME280;41326;45.302;-122.946;2022-10-16T04:48:42;100498.79;;;22.02;56.27
55460;BME280;41326;45.302;-122.946;2022-10-16T04:51:13;100497.89;;;21.99;56.31
55460;BME280;41326;45.302;-122.946;2022-10-16T04:53:43;100500.06;;;21.96;56.40
55460;BME280;41326;45.302;-122.946;2022-10-16T04:56:13;100504.32;;;22.00;56.32
55460;BME280;41326;45.302;-122.946;2022-10-16T04:58:44;100509.52;;;22.01;56.28
55460;BME280;41326;45.302;-122.946;2022-10-16T05:01:15;100508.95;;;22.04;56.23
55460;BME280;41326;45.302;-122.946;2022-10-16T05:03:45;100513.73;;;22.02;56.27
55460;BME280;41326;45.302;-122.946;2022-10-16T05:06:16;100515.30;;;22.00;56.32
55460;BME280;41326;45.302;-122.946;2022-10-16T05:08:46;100514.90;;;21.98;56.31
55460;BME280;41326;45.302;-122.946;2022-10-16T05:11:17;100514.87;;;21.95;56.36
55460;BME280;41326;45.302;-122.946;2022-10-16T05:13:47;100514.98;;;21.94;56.45
55460;BME280;41326;45.302;-122.946;2022-10-16T05:16:17;100514.76;;;21.93;56.52
55460;BME280;41326;45.302;-122.946;2022-10-16T05:18:48;100516.75;;;21.97;56.40
55460;BME280;41326;45.302;-122.946;2022-10-16T05:21:18;100520.68;;;21.97;56.42
55460;BME280;41326;45.302;-122.946;2022-10-16T05:23:48;100520.15;;;21.94;56.52
55460;BME280;41326;45.302;-122.946;2022-10-16T05:26:19;100521.85;;;21.94;56.56
55460;BME280;41326;45.302;-122.946;2022-10-16T05:28:49;100518.48;;;21.92;56.54
55460;BME280;41326;45.302;-122.946;2022-10-16T05:31:20;100510.98;;;21.94;56.46
55460;BME280;41326;45.302;-122.946;2022-10-16T05:33:50;100521.22;;;21.92;56.54
55460;BME280;41326;45.302;-122.946;2022-10-16T05:36:21;100516.38;;;21.92;56.61
55460;BME280;41326;45.302;-122.946;2022-10-16T05:38:51;100522.04;;;21.93;56.57
55460;BME280;41326;45.302;-122.946;2022-10-16T05:41:21;100520.18;;;21.94;56.53
55460;BME280;41326;45.302;-122.946;2022-10-16T05:43:51;100520.45;;;21.91;56.63
55460;BME280;41326;45.302;-122.946;2022-10-16T05:46:22;100520.33;;;21.90;56.67
55460;BME280;41326;45.302;-122.946;2022-10-16T05:48:52;100519.98;;;21.88;56.66
55460;BME280;41326;45.302;-122.946;2022-10-16T05:51:23;100518.73;;;21.89;56.57
55460;BME280;41326;45.302;-122.946;2022-10-16T05:53:53;100520.49;;;21.87;56.63
55460;BME280;41326;45.302;-122.946;2022-10-16T05:56:24;100519.25;;;21.90;56.58
55460;BME280;41326;45.302;-122.946;2022-10-16T05:58:54;100516.20;;;21.92;56.50
55460;BME280;41326;45.302;-122.946;2022-10-16T06:01:24;100515.53;;;21.90;56.59
55460;BME280;41326;45.302;-122.946;2022-10-16T06:03:54;100520.41;;;21.86;56.69
55460;BME280;41326;45.302;-122.946;2022-10-16T06:06:26;100521.75;;;21.86;56.70
55460;BME280;41326;45.302;-122.946;2022-10-16T06:08:56;100522.12;;;21.86;56.62
55460;BME280;41326;45.302;-122.946;2022-10-16T06:11:28;100527.18;;;21.83;56.66
55460;BME280;41326;45.302;-122.946;2022-10-16T06:13:57;100526.11;;;21.85;56.61
55460;BME280;41326;45.302;-122.946;2022-10-16T06:16:27;100525.90;;;21.87;56.52
55460;BME280;41326;45.302;-122.946;2022-10-16T06:18:57;100526.97;;;21.84;56.64
55460;BME280;41326;45.302;-122.946;2022-10-16T06:21:28;100523.93;;;21.83;56.67
55460;BME280;41326;45.302;-122.946;2022-10-16T06:23:57;100529.78;;;21.83;56.65
55460;BME280;41326;45.302;-122.946;2022-10-16T06:26:28;100528.42;;;21.80;56.74
55460;BME280;41326;45.302;-122.946;2022-10-16T06:28:59;100527.42;;;21.78;56.71
55460;BME280;41326;45.302;-122.946;2022-10-16T06:32:35;100526.91;;;21.77;56.70
55460;BME280;41326;45.302;-122.946;2022-10-16T06:35:05;100522.33;;;21.75;56.75
55460;BME280;41326;45.302;-122.946;2022-10-16T06:37:36;100522.82;;;21.77;56.72
55460;BME280;41326;45.302;-122.946;2022-10-16T06:40:06;100519.08;;;21.78;56.68
55460;BME280;41326;45.302;-122.946;2022-10-16T06:42:47;100519.49;;;21.78;56.67
55460;BME280;41326;45.302;-122.946;2022-10-16T06:45:17;100521.59;;;21.76;56.73
55460;BME280;41326;45.302;-122.946;2022-10-16T06:47:48;100519.23;;;21.73;56.76
55460;BME280;41326;45.302;-122.946;2022-10-16T06:50:18;100523.48;;;21.72;56.74
55460;BME280;41326;45.302;-122.946;2022-10-16T06:52:49;100522.18;;;21.71;56.75
55460;BME280;41326;45.302;-122.946;2022-10-16T06:55:19;100526.33;;;21.69;56.85
55460;BME280;41326;45.302;-122.946;2022-10-16T06:57:52;100526.28;;;21.72;56.79
55460;BME280;41326;45.302;-122.946;2022-10-16T07:00:20;100526.42;;;21.69;56.87
55460;BME280;41326;45.302;-122.946;2022-10-16T07:02:51;100528.08;;;21.70;56.84
55460;BME280;41326;45.302;-122.946;2022-10-16T07:05:20;100527.21;;;21.68;56.92
55460;BME280;41326;45.302;-122.946;2022-10-16T07:07:51;100524.78;;;21.67;56.93
55460;BME280;41326;45.302;-122.946;2022-10-16T07:10:21;100523.35;;;21.64;56.98
55460;BME280;41326;45.302;-122.946;2022-10-16T07:12:52;100522.46;;;21.64;56.99
55460;BME280;41326;45.302;-122.946;2022-10-16T07:15:22;100523.73;;;21.63;57.02
55460;BME280;41326;45.302;-122.946;2022-10-16T07:17:53;100525.88;;;21.66;56.93
55460;BME280;41326;45.302;-122.946;2022-10-16T07:20:23;100529.80;;;21.63;57.03
55460;BME280;41326;45.302;-122.946;2022-10-16T07:22:53;100530.87;;;21.63;57.06
55460;BME280;41326;45.302;-122.946;2022-10-16T07:25:23;100538.37;;;21.62;57.10
55460;BME280;41326;45.302;-122.946;2022-10-16T07:27:53;100542.68;;;21.65;56.93
55460;BME280;41326;45.302;-122.946;2022-10-16T07:30:24;100544.02;;;21.64;56.89
55460;BME280;41326;45.302;-122.946;2022-10-16T07:32:54;100546.66;;;21.63;56.90
55460;BME280;41326;45.302;-122.946;2022-10-16T07:35:24;100547.46;;;21.64;56.87
55460;BME280;41326;45.302;-122.946;2022-10-16T07:37:54;100548.28;;;21.67;56.77
55460;BME280;41326;45.302;-122.946;2022-10-16T07:40:25;100546.00;;;21.67;56.76
55460;BME280;41326;45.302;-122.946;2022-10-16T07:42:55;100543.99;;;21.67;56.74
55460;BME280;41326;45.302;-122.946;2022-10-16T07:45:26;100543.95;;;21.65;56.80
55460;BME280;41326;45.302;-122.946;2022-10-16T07:47:56;100545.73;;;21.65;56.75
55460;BME280;41326;45.302;-122.946;2022-10-16T07:50:26;100546.21;;;21.63;56.74
55460;BME280;41326;45.302;-122.946;2022-10-16T07:52:57;100547.70;;;21.61;56.76
55460;BME280;41326;45.302;-122.946;2022-10-16T07:55:27;100545.22;;;21.61;56.78
55460;BME280;41326;45.302;-122.946;2022-10-16T07:57:57;100550.27;;;21.61;56.79
55460;BME280;41326;45.302;-122.946;2022-10-16T08:00:28;100547.88;;;21.58;56.89
55460;BME280;41326;45.302;-122.946;2022-10-16T08:02:58;100548.04;;;21.57;56.89
55460;BME280;41326;45.302;-122.946;2022-10-16T08:05:28;100545.20;;;21.59;56.84
55460;BME280;41326;45.302;-122.946;2022-10-16T08:07:58;100546.15;;;21.58;56.80
55460;BME280;41326;45.302;-122.946;2022-10-16T08:10:30;100546.03;;;21.52;56.92
55460;BME280;41326;45.302;-122.946;2022-10-16T08:12:59;100548.31;;;21.52;56.91
55460;BME280;41326;45.302;-122.946;2022-10-16T08:15:29;100550.68;;;21.52;56.91
55460;BME280;41326;45.302;-122.946;2022-10-16T08:18:03;100549.63;;;21.54;56.85
55460;BME280;41326;45.302;-122.946;2022-10-16T08:20:31;100550.53;;;21.51;56.93
55460;BME280;41326;45.302;-122.946;2022-10-16T08:23:00;100550.01;;;21.53;56.88
55460;BME280;41326;45.302;-122.946;2022-10-16T08:25:30;100549.86;;;21.50;56.95
55460;BME280;41326;45.302;-122.946;2022-10-16T08:28:02;100552.99;;;21.51;56.85
55460;BME280;41326;45.302;-122.946;2022-10-16T08:30:31;100554.21;;;21.49;56.86
55460;BME280;41326;45.302;-122.946;2022-10-16T08:33:01;100553.31;;;21.47;56.91
55460;BME280;41326;45.302;-122.946;2022-10-16T08:35:32;100553.76;;;21.48;56.93
55460;BME280;41326;45.302;-122.946;2022-10-16T08:38:03;100549.83;;;21.46;56.99
55460;BME280;41326;45.302;-122.946;2022-10-16T08:40:34;100545.79;;;21.43;57.08
55460;BME280;41326;45.302;-122.946;2022-10-16T08:43:20;100545.83;;;21.44;57.09
55460;BME280;41326;45.302;-122.946;2022-10-16T08:45:41;100540.48;;;21.45;57.05
55460;BME280;41326;45.302;-122.946;2022-10-16T08:48:15;100542.81;;;21.43;57.07
55460;BME280;41326;45.302;-122.946;2022-10-16T08:50:37;100536.46;;;21.42;57.03
55460;BME280;41326;45.302;-122.946;2022-10-16T08:53:05;100537.69;;;21.38;57.18
55460;BME280;41326;45.302;-122.946;2022-10-16T08:55:38;100534.78;;;21.38;57.18
55460;BME280;41326;45.302;-122.946;2022-10-16T08:58:10;100533.56;;;21.40;57.15
55460;BME280;41326;45.302;-122.946;2022-10-16T09:00:36;100535.64;;;21.41;57.13
55460;BME280;41326;45.302;-122.946;2022-10-16T09:03:14;100530.86;;;21.42;57.07
55460;BME280;41326;45.302;-122.946;2022-10-16T09:05:53;100531.78;;;21.42;57.04
55460;BME280;41326;45.302;-122.946;2022-10-16T09:08:14;100534.36;;;21.39;57.07
55460;BME280;41326;45.302;-122.946;2022-10-16T09:10:46;100538.30;;;21.36;57.09
55460;BME280;41326;45.302;-122.946;2022-10-16T09:13:16;100538.18;;;21.35;57.11
55460;BME280;41326;45.302;-122.946;2022-10-16T09:15:43;100536.55;;;21.38;57.02
55460;BME280;41326;45.302;-122.946;2022-10-16T09:18:14;100536.95;;;21.38;56.99
55460;BME280;41326;45.302;-122.946;2022-10-16T09:20:44;100538.87;;;21.39;56.97
55460;BME280;41326;45.302;-122.946;2022-10-16T09:23:15;100536.63;;;21.40;56.91
55460;BME280;41326;45.302;-122.946;2022-10-16T09:25:39;100537.70;;;21.37;56.97
55460;BME280;41326;45.302;-122.946;2022-10-16T09:28:09;100541.19;;;21.33;57.06
55460;BME280;41326;45.302;-122.946;2022-10-16T09:30:39;100543.80;;;21.32;57.03
55460;BME280;41326;45.302;-122.946;2022-10-16T09:33:12;100545.61;;;21.33;56.99
55460;BME280;41326;45.302;-122.946;2022-10-16T09:35:43;100546.43;;;21.32;57.01
55460;BME280;41326;45.302;-122.946;2022-10-16T09:40:42;100549.49;;;21.29;57.07
55460;BME280;41326;45.302;-122.946;2022-10-16T09:43:20;100549.71;;;21.29;57.07
55460;BME280;41326;45.302;-122.946;2022-10-16T09:45:42;100545.63;;;21.32;56.96
55460;BME280;41326;45.302;-122.946;2022-10-16T09:48:17;100551.21;;;21.31;56.93
55460;BME280;41326;45.302;-122.946;2022-10-16T09:50:43;100548.59;;;21.26;57.03
55460;BME280;41326;45.302;-122.946;2022-10-16T09:53:17;100545.54;;;21.26;57.03
55460;BME280;41326;45.302;-122.946;2022-10-16T09:55:48;100541.54;;;21.29;56.92
55460;BME280;41326;45.302;-122.946;2022-10-16T09:58:21;100542.81;;;21.29;56.92
55460;BME280;41326;45.302;-122.946;2022-10-16T10:00:49;100540.36;;;21.32;56.83
55460;BME280;41326;45.302;-122.946;2022-10-16T10:03:19;100542.47;;;21.31;56.83
55460;BME280;41326;45.302;-122.946;2022-10-16T10:05:47;100545.00;;;21.29;56.87
55460;BME280;41326;45.302;-122.946;2022-10-16T10:08:21;100544.78;;;21.25;56.95
55460;BME280;41326;45.302;-122.946;2022-10-16T10:10:47;100547.85;;;21.21;57.02
55460;BME280;41326;45.302;-122.946;2022-10-16T10:13:22;100544.01;;;21.22;57.00
55460;BME280;41326;45.302;-122.946;2022-10-16T10:15:47;100542.79;;;21.23;56.97
55460;BME280;41326;45.302;-122.946;2022-10-16T10:18:22;100544.04;;;21.25;56.90
55460;BME280;41326;45.302;-122.946;2022-10-16T10:23:27;100543.70;;;21.23;56.95
55460;BME280;41326;45.302;-122.946;2022-10-16T10:25:56;100542.44;;;21.20;57.04
55460;BME280;41326;45.302;-122.946;2022-10-16T10:30:56;100545.92;;;21.17;57.05
55460;BME280;41326;45.302;-122.946;2022-10-16T10:33:26;100541.70;;;21.18;57.02
55460;BME280;41326;45.302;-122.946;2022-10-16T10:35:52;100539.88;;;21.17;57.10
55460;BME280;41326;45.302;-122.946;2022-10-16T10:38:30;100539.52;;;21.13;57.19
55460;BME280;41326;45.302;-122.946;2022-10-16T10:40:58;100537.06;;;21.13;57.21
55460;BME280;41326;45.302;-122.946;2022-10-16T10:43:31;100531.25;;;21.14;57.14
55460;BME280;41326;45.302;-122.946;2022-10-16T10:45:53;100535.18;;;21.17;57.03
55460;BME280;41326;45.302;-122.946;2022-10-16T10:48:38;100529.89;;;21.18;56.94
55460;BME280;41326;45.302;-122.946;2022-10-16T10:50:54;100533.19;;;21.17;56.94
55460;BME280;41326;45.302;-122.946;2022-10-16T10:53:33;100534.04;;;21.16;56.94
55460;BME280;41326;45.302;-122.946;2022-10-16T10:55:59;100533.20;;;21.17;56.91
55460;BME280;41326;45.302;-122.946;2022-10-16T11:00:56;100531.00;;;21.19;56.80
55460;BME280;41326;45.302;-122.946;2022-10-16T11:03:35;100527.56;;;21.21;56.76
55460;BME280;41326;45.302;-122.946;2022-10-16T11:05:56;100524.09;;;21.18;56.79
55460;BME280;41326;45.302;-122.946;2022-10-16T11:08:27;100526.68;;;21.15;56.84
55460;BME280;41326;45.302;-122.946;2022-10-16T11:11:00;100523.90;;;21.13;56.85
55460;BME280;41326;45.302;-122.946;2022-10-16T11:13:33;100524.91;;;21.12;56.88
55460;BME280;41326;45.302;-122.946;2022-10-16T11:15:59;100526.63;;;21.16;56.75
55460;BME280;41326;45.302;-122.946;2022-10-16T11:18:29;100529.27;;;21.18;56.66
55460;BME280;41326;45.302;-122.946;2022-10-16T11:20:59;100526.83;;;21.17;56.70
55460;BME280;41326;45.302;-122.946;2022-10-16T11:23:30;100531.41;;;21.16;56.71
55460;BME280;41326;45.302;-122.946;2022-10-16T11:25:57;100532.13;;;21.14;56.75
55460;BME280;41326;45.302;-122.946;2022-10-16T11:28:31;100531.97;;;21.09;56.84
55460;BME280;41326;45.302;-122.946;2022-10-16T11:31:02;100534.65;;;21.07;56.87
55460;BME280;41326;45.302;-122.946;2022-10-16T11:33:34;100533.41;;;21.10;56.77
55460;BME280;41326;45.302;-122.946;2022-10-16T11:36:03;100535.49;;;21.11;56.74
55460;BME280;41326;45.302;-122.946;2022-10-16T11:38:34;100541.21;;;21.14;56.65
55460;BME280;41326;45.302;-122.946;2022-10-16T11:41:00;100542.08;;;21.10;56.76
55460;BME280;41326;45.302;-122.946;2022-10-16T11:43:34;100544.54;;;21.11;56.73
55460;BME280;41326;45.302;-122.946;2022-10-16T11:46:02;100542.38;;;21.08;56.79
55460;BME280;41326;45.302;-122.946;2022-10-16T11:48:35;100538.41;;;21.07;56.77
55460;BME280;41326;45.302;-122.946;2022-10-16T11:51:05;100539.51;;;21.04;56.80
55460;BME280;41326;45.302;-122.946;2022-10-16T11:53:37;100532.24;;;21.06;56.78
55460;BME280;41326;45.302;-122.946;2022-10-16T11:56:00;100534.61;;;21.03;56.85
55460;BME280;41326;45.302;-122.946;2022-10-16T11:58:34;100532.89;;;21.05;56.80
55460;BME280;41326;45.302;-122.946;2022-10-16T12:01:10;100528.95;;;21.05;56.78
55460;BME280;41326;45.302;-122.946;2022-10-16T12:03:36;100532.77;;;21.06;56.78
55460;BME280;41326;45.302;-122.946;2022-10-16T12:06:13;100536.02;;;21.04;56.82
55460;BME280;41326;45.302;-122.946;2022-10-16T12:08:33;100539.07;;;21.01;56.89
55460;BME280;41326;45.302;-122.946;2022-10-16T12:11:07;100541.80;;;21.02;56.83
55460;BME280;41326;45.302;-122.946;2022-10-16T12:13:35;100537.89;;;21.02;56.85
55460;BME280;41326;45.302;-122.946;2022-10-16T12:16:19;100540.67;;;21.01;56.91
55460;BME280;41326;45.302;-122.946;2022-10-16T12:18:33;100537.80;;;21.03;56.84
55460;BME280;41326;45.302;-122.946;2022-10-16T12:21:05;100543.99;;;21.03;56.84
55460;BME280;41326;45.302;-122.946;2022-10-16T12:23:36;100541.70;;;21.02;56.88
55460;BME280;41326;45.302;-122.946;2022-10-16T12:26:05;100541.67;;;21.01;56.87
55460;BME280;41326;45.302;-122.946;2022-10-16T12:28:35;100539.20;;;20.99;56.89
55460;BME280;41326;45.302;-122.946;2022-10-16T12:31:07;100546.49;;;20.99;56.86
55460;BME280;41326;45.302;-122.946;2022-10-16T12:33:36;100544.84;;;20.98;56.88
55460;BME280;41326;45.302;-122.946;2022-10-16T12:36:09;100546.91;;;20.98;56.88
55460;BME280;41326;45.302;-122.946;2022-10-16T12:38:45;100548.58;;;21.00;56.79
55460;BME280;41326;45.302;-122.946;2022-10-16T12:41:07;100547.19;;;21.00;56.78
55460;BME280;41326;45.302;-122.946;2022-10-16T12:43:41;100551.88;;;20.97;56.85
55460;BME280;41326;45.302;-122.946;2022-10-16T12:48:38;100555.95;;;20.97;56.81
55460;BME280;41326;45.302;-122.946;2022-10-16T12:51:12;100550.56;;;20.95;56.81